createdAt,value
2023-04-03T00:00:00.821Z,69.33
2023-04-03T00:01:01.260Z,69.33
2023-04-03T00:02:00.809Z,69.40
2023-04-03T00:03:00.868Z,69.40
2023-04-03T00:04:00.883Z,69.40
2023-04-03T00:05:00.837Z,69.40
2023-04-03T00:06:02.176Z,69.40
2023-04-03T00:07:00.753Z,69.28
2023-04-03T00:08:00.784Z,69.28
2023-04-03T00:09:00.773Z,69.28
2023-04-03T00:10:00.833Z,69.28
2023-04-03T00:11:01.087Z,69.28
2023-04-03T00:12:00.963Z,69.33
2023-04-03T00:13:00.912Z,69.33
2023-04-03T00:14:00.867Z,69.33
2023-04-03T00:15:00.768Z,69.33
2023-04-03T00:16:01.137Z,69.33
2023-04-03T00:17:00.756Z,69.29
2023-04-03T00:18:00.908Z,69.29
2023-04-03T00:19:00.817Z,69.29
2023-04-03T00:20:01.176Z,69.29
2023-04-03T00:21:00.851Z,69.29
2023-04-03T00:22:00.792Z,69.29
2023-04-03T00:23:01.270Z,69.29
2023-04-03T00:24:00.776Z,69.29
2023-04-03T00:25:00.794Z,69.29
2023-04-03T00:26:01.016Z,69.29
2023-04-03T00:27:00.753Z,69.11
2023-04-03T00:28:00.790Z,69.11
2023-04-03T00:29:00.764Z,69.11
2023-04-03T00:30:00.742Z,69.11
2023-04-03T00:31:00.847Z,69.11
2023-04-03T00:32:00.751Z,68.97
2023-04-03T00:33:00.834Z,68.97
2023-04-03T00:34:00.893Z,68.97
2023-04-03T00:35:00.801Z,68.97
2023-04-03T00:36:05.163Z,68.97
2023-04-03T00:37:00.887Z,68.97
2023-04-03T00:38:00.828Z,68.97
2023-04-03T00:39:00.774Z,68.97
2023-04-03T00:40:00.858Z,68.97
2023-04-03T00:41:00.887Z,68.97
2023-04-03T00:42:00.779Z,68.84
2023-04-03T00:43:00.777Z,68.84
2023-04-03T00:44:00.910Z,68.84
2023-04-03T00:45:00.761Z,68.84
2023-04-03T00:46:00.883Z,68.84
2023-04-03T00:47:01.783Z,68.71
2023-04-03T00:48:03.170Z,68.71
2023-04-03T00:49:00.802Z,68.71
2023-04-03T00:50:01.228Z,68.71
2023-04-03T00:51:01.986Z,68.71
2023-04-03T00:52:01.262Z,68.65
2023-04-03T00:53:01.777Z,68.65
2023-04-03T00:54:02.526Z,68.65
2023-04-03T00:55:03.771Z,68.65
2023-04-03T00:56:01.242Z,68.65
2023-04-03T00:57:00.882Z,68.67
2023-04-03T00:58:01.386Z,68.67
2023-04-03T00:59:05.932Z,68.67
2023-04-03T01:00:04.667Z,68.67
2023-04-03T01:01:03.463Z,68.67
2023-04-03T01:02:00.927Z,68.62
2023-04-03T01:03:00.860Z,68.62
2023-04-03T01:04:01.402Z,68.62
2023-04-03T01:05:00.826Z,68.62
2023-04-03T01:06:00.812Z,68.62
2023-04-03T01:07:01.936Z,68.87
2023-04-03T01:08:01.273Z,68.87
2023-04-03T01:09:01.275Z,68.87
2023-04-03T01:10:02.465Z,68.87
2023-04-03T01:11:00.890Z,68.87
2023-04-03T01:12:10.691Z,68.73
2023-04-03T01:13:00.914Z,68.73
2023-04-03T01:14:00.779Z,68.73
2023-04-03T01:15:03.171Z,68.73
2023-04-03T01:16:01.606Z,68.73
2023-04-03T01:17:00.766Z,68.54
2023-04-03T01:18:00.821Z,68.54
2023-04-03T01:19:01.305Z,68.54
2023-04-03T01:20:10.685Z,68.54
2023-04-03T01:21:00.751Z,68.54
2023-04-03T01:22:08.174Z,68.54
2023-04-03T01:23:01.875Z,68.54
2023-04-03T01:24:08.556Z,68.54
2023-04-03T01:25:01.311Z,68.54
2023-04-03T01:26:00.778Z,68.54
2023-04-03T01:27:02.618Z,68.55
2023-04-03T01:28:00.796Z,68.55
2023-04-03T01:29:00.830Z,68.55
2023-04-03T01:30:00.845Z,68.55
2023-04-03T01:31:08.229Z,68.55
2023-04-03T01:32:02.177Z,68.41
2023-04-03T01:33:00.851Z,68.41
2023-04-03T01:34:00.875Z,68.41
2023-04-03T01:35:00.810Z,68.41
2023-04-03T01:36:01.062Z,68.41
2023-04-03T01:37:00.809Z,68.44
2023-04-03T01:38:00.829Z,68.44
2023-04-03T01:39:00.766Z,68.44
2023-04-03T01:40:00.802Z,68.44
2023-04-03T01:41:00.948Z,68.44
2023-04-03T01:42:00.778Z,68.46
2023-04-03T01:43:00.776Z,68.46
2023-04-03T01:44:01.025Z,68.46
2023-04-03T01:45:00.817Z,68.46
2023-04-03T01:46:01.033Z,68.46
2023-04-03T01:47:00.847Z,68.45
2023-04-03T01:48:01.047Z,68.45
2023-04-03T01:49:01.038Z,68.45
2023-04-03T01:50:00.888Z,68.45
2023-04-03T01:51:00.884Z,68.45
2023-04-03T01:52:00.798Z,68.51
2023-04-03T01:53:00.787Z,68.51
2023-04-03T01:54:00.821Z,68.51
2023-04-03T01:55:00.802Z,68.51
2023-04-03T01:56:00.869Z,68.51
2023-04-03T01:57:00.846Z,68.45
2023-04-03T01:58:00.817Z,68.45
2023-04-03T01:59:00.864Z,68.45
2023-04-03T02:00:00.888Z,68.45
2023-04-03T02:01:00.870Z,68.45
2023-04-03T02:02:00.836Z,68.47
2023-04-03T02:03:00.888Z,68.47
2023-04-03T02:04:00.856Z,68.47
2023-04-03T02:05:00.884Z,68.47
2023-04-03T02:06:00.934Z,68.47
2023-04-03T02:07:00.786Z,68.55
2023-04-03T02:08:00.811Z,68.55
2023-04-03T02:09:00.782Z,68.55
2023-04-03T02:10:00.951Z,68.55
2023-04-03T02:11:00.788Z,68.55
2023-04-03T02:12:00.786Z,68.53
2023-04-03T02:13:00.988Z,68.53
2023-04-03T02:14:00.811Z,68.53
2023-04-03T02:15:00.796Z,68.53
2023-04-03T02:16:06.178Z,68.53
2023-04-03T02:17:01.658Z,68.61
2023-04-03T02:18:00.823Z,68.61
2023-04-03T02:19:00.834Z,68.61
2023-04-03T02:20:00.973Z,68.61
2023-04-03T02:21:00.775Z,68.61
2023-04-03T02:22:01.507Z,68.68
2023-04-03T02:23:01.088Z,68.68
2023-04-03T02:24:00.946Z,68.68
2023-04-03T02:25:00.986Z,68.68
2023-04-03T02:26:03.272Z,68.68
2023-04-03T02:27:00.808Z,68.73
2023-04-03T02:28:00.807Z,68.73
2023-04-03T02:29:00.813Z,68.73
2023-04-03T02:30:00.937Z,68.73
2023-04-03T02:31:01.008Z,68.73
2023-04-03T02:32:00.855Z,68.96
2023-04-03T02:33:00.843Z,68.96
2023-04-03T02:34:00.828Z,68.96
2023-04-03T02:35:00.823Z,68.96
2023-04-03T02:36:00.850Z,68.96
2023-04-03T02:37:00.902Z,69.03
2023-04-03T02:38:00.802Z,69.03
2023-04-03T02:39:00.789Z,69.03
2023-04-03T02:40:00.826Z,69.03
2023-04-03T02:41:02.720Z,69.03
2023-04-03T02:42:00.822Z,69.15
2023-04-03T02:43:00.789Z,69.15
2023-04-03T02:44:01.771Z,69.15
2023-04-03T02:45:00.929Z,69.15
2023-04-03T02:46:00.804Z,69.15
2023-04-03T02:47:00.820Z,69.05
2023-04-03T02:48:00.839Z,69.05
2023-04-03T02:49:00.835Z,69.05
2023-04-03T02:50:00.926Z,69.05
2023-04-03T02:51:00.849Z,69.05
2023-04-03T02:52:00.783Z,69.13
2023-04-03T02:53:01.059Z,69.13
2023-04-03T02:54:00.943Z,69.13
2023-04-03T02:55:00.793Z,69.13
2023-04-03T02:56:00.811Z,69.13
2023-04-03T02:57:00.797Z,69.16
2023-04-03T02:58:00.856Z,69.16
2023-04-03T02:59:00.754Z,69.16
2023-04-03T03:00:00.851Z,69.16
2023-04-03T03:01:01.023Z,69.16
2023-04-03T03:02:00.864Z,69.25
2023-04-03T03:03:00.795Z,69.25
2023-04-03T03:04:00.896Z,69.25
2023-04-03T03:05:00.882Z,69.25
2023-04-03T03:06:02.154Z,69.25
2023-04-03T03:07:01.192Z,69.50
2023-04-03T03:08:00.803Z,69.50
2023-04-03T03:09:00.805Z,69.50
2023-04-03T03:10:03.374Z,69.50
2023-04-03T03:11:00.827Z,69.50
2023-04-03T03:12:00.834Z,69.46
2023-04-03T03:13:00.781Z,69.46
2023-04-03T03:14:00.792Z,69.46
2023-04-03T03:15:00.858Z,69.46
2023-04-03T03:16:01.229Z,69.46
2023-04-03T03:17:00.797Z,69.63
2023-04-03T03:18:00.838Z,69.63
2023-04-03T03:19:00.883Z,69.63
2023-04-03T03:20:00.829Z,69.63
2023-04-03T03:21:01.265Z,69.63
2023-04-03T03:22:00.800Z,69.50
2023-04-03T03:23:00.773Z,69.50
2023-04-03T03:24:00.798Z,69.50
2023-04-03T03:25:01.072Z,69.50
2023-04-03T03:26:02.654Z,69.50
2023-04-03T03:27:00.905Z,69.47
2023-04-03T03:28:00.778Z,69.47
2023-04-03T03:29:00.792Z,69.47
2023-04-03T03:30:00.813Z,69.47
2023-04-03T03:31:00.928Z,69.47
2023-04-03T03:32:00.778Z,69.43
2023-04-03T03:33:00.948Z,69.43
2023-04-03T03:34:00.808Z,69.43
2023-04-03T03:35:00.866Z,69.43
2023-04-03T03:36:00.866Z,69.43
2023-04-03T03:37:00.762Z,69.95
2023-04-03T03:38:00.773Z,69.95
2023-04-03T03:39:00.807Z,69.95
2023-04-03T03:40:00.842Z,69.95
2023-04-03T03:41:00.825Z,69.95
2023-04-03T03:42:00.814Z,69.95
2023-04-03T03:43:00.860Z,69.95
2023-04-03T03:44:00.827Z,69.95
2023-04-03T03:45:00.802Z,69.95
2023-04-03T03:46:00.789Z,69.95
2023-04-03T03:47:00.810Z,70.08
2023-04-03T03:48:01.263Z,70.08
2023-04-03T03:49:00.842Z,70.08
2023-04-03T03:50:00.924Z,70.08
2023-04-03T03:51:00.778Z,70.08
2023-04-03T03:52:00.860Z,70.04
2023-04-03T03:53:00.793Z,70.04
2023-04-03T03:54:00.783Z,70.04
2023-04-03T03:55:00.801Z,70.04
2023-04-03T03:56:00.768Z,70.04
2023-04-03T03:57:00.794Z,70.16
2023-04-03T03:58:00.761Z,70.16
2023-04-03T03:59:00.766Z,70.16
2023-04-03T04:00:00.785Z,70.16
2023-04-03T04:01:02.921Z,70.16
2023-04-03T04:02:00.907Z,70.17
2023-04-03T04:03:00.938Z,70.17
2023-04-03T04:04:00.784Z,70.17
2023-04-03T04:05:00.788Z,70.17
2023-04-03T04:06:00.903Z,70.17
2023-04-03T04:07:00.761Z,70.17
2023-04-03T04:08:03.247Z,70.17
2023-04-03T04:09:00.770Z,70.17
2023-04-03T04:10:00.807Z,70.17
2023-04-03T04:11:00.861Z,70.17
2023-04-03T04:12:00.766Z,70.13
2023-04-03T04:13:00.778Z,70.13
2023-04-03T04:14:00.794Z,70.13
2023-04-03T04:15:01.167Z,70.13
2023-04-03T04:16:00.807Z,70.13
2023-04-03T04:17:00.883Z,70.14
2023-04-03T04:18:00.799Z,70.14
2023-04-03T04:19:00.784Z,70.14
2023-04-03T04:20:01.448Z,70.14
2023-04-03T04:21:00.784Z,70.14
2023-04-03T04:22:00.771Z,70.22
2023-04-03T04:23:00.826Z,70.22
2023-04-03T04:24:00.772Z,70.22
2023-04-03T04:25:00.792Z,70.22
2023-04-03T04:26:00.789Z,70.22
2023-04-03T04:27:00.733Z,70.25
2023-04-03T04:28:01.107Z,70.25
2023-04-03T04:29:00.783Z,70.25
2023-04-03T04:30:00.873Z,70.25
2023-04-03T04:31:00.813Z,70.25
2023-04-03T04:32:01.138Z,70.22
2023-04-03T04:33:00.867Z,70.22
2023-04-03T04:34:00.750Z,70.22
2023-04-03T04:35:00.861Z,70.22
2023-04-03T04:36:00.885Z,70.22
2023-04-03T04:37:00.962Z,70.36
2023-04-03T04:38:00.869Z,70.36
2023-04-03T04:39:00.817Z,70.36
2023-04-03T04:40:00.811Z,70.36
2023-04-03T04:41:00.787Z,70.36
2023-04-03T04:42:00.763Z,70.46
2023-04-03T04:43:00.848Z,70.46
2023-04-03T04:44:00.828Z,70.46
2023-04-03T04:45:00.785Z,70.46
2023-04-03T04:46:01.914Z,70.46
2023-04-03T04:47:00.755Z,70.48
2023-04-03T04:48:00.774Z,70.48
2023-04-03T04:49:00.791Z,70.48
2023-04-03T04:50:00.793Z,70.48
2023-04-03T04:51:01.077Z,70.48
2023-04-03T04:52:00.749Z,70.53
2023-04-03T04:53:00.745Z,70.53
2023-04-03T04:54:00.901Z,70.53
2023-04-03T04:55:00.807Z,70.53
2023-04-03T04:56:00.767Z,70.53
2023-04-03T04:57:00.811Z,70.53
2023-04-03T04:58:00.756Z,70.53
2023-04-03T04:59:00.929Z,70.53
2023-04-03T05:00:00.776Z,70.53
2023-04-03T05:01:01.355Z,70.53
2023-04-03T05:02:00.881Z,70.59
2023-04-03T05:03:00.784Z,70.59
2023-04-03T05:04:00.807Z,70.59
2023-04-03T05:05:01.949Z,70.59
2023-04-03T05:06:00.911Z,70.59
2023-04-03T05:07:00.776Z,70.72
2023-04-03T05:08:01.049Z,70.72
2023-04-03T05:09:01.117Z,70.72
2023-04-03T05:10:00.888Z,70.72
2023-04-03T05:11:00.765Z,70.72
2023-04-03T05:12:00.967Z,70.76
2023-04-03T05:13:00.739Z,70.76
2023-04-03T05:14:00.733Z,70.76
2023-04-03T05:15:00.792Z,70.76
2023-04-03T05:16:00.747Z,70.76
2023-04-03T05:17:00.736Z,70.85
2023-04-03T05:18:00.775Z,70.85
2023-04-03T05:19:00.809Z,70.85
2023-04-03T05:20:01.150Z,70.85
2023-04-03T05:21:00.741Z,70.85
2023-04-03T05:22:00.764Z,70.84
2023-04-03T05:23:00.807Z,70.84
2023-04-03T05:24:01.544Z,70.84
2023-04-03T05:25:00.772Z,70.84
2023-04-03T05:26:00.760Z,70.84
2023-04-03T05:27:00.750Z,71.00
2023-04-03T05:28:00.738Z,71.00
2023-04-03T05:29:00.827Z,71.00
2023-04-03T05:30:00.916Z,71.00
2023-04-03T05:31:00.821Z,71.00
2023-04-03T05:32:00.816Z,70.91
2023-04-03T05:33:00.852Z,70.91
2023-04-03T05:34:00.814Z,70.91
2023-04-03T05:35:01.453Z,70.91
2023-04-03T05:36:03.472Z,70.91
2023-04-03T05:37:00.762Z,71.08
2023-04-03T05:38:00.720Z,71.08
2023-04-03T05:39:00.806Z,71.08
2023-04-03T05:40:00.812Z,71.08
2023-04-03T05:41:00.778Z,71.08
2023-04-03T05:42:00.733Z,71.16
2023-04-03T05:43:00.740Z,71.16
2023-04-03T05:44:00.813Z,71.16
2023-04-03T05:45:00.816Z,71.16
2023-04-03T05:46:00.815Z,71.16
2023-04-03T05:47:00.784Z,71.20
2023-04-03T05:48:00.760Z,71.20
2023-04-03T05:49:00.751Z,71.20
2023-04-03T05:50:00.745Z,71.20
2023-04-03T05:51:00.789Z,71.20
2023-04-03T05:52:01.120Z,71.12
2023-04-03T05:53:01.991Z,71.12
2023-04-03T05:54:09.634Z,71.12
2023-04-03T05:55:00.801Z,71.12
2023-04-03T05:56:00.770Z,71.12
2023-04-03T05:57:00.801Z,71.37
2023-04-03T05:58:00.775Z,71.37
2023-04-03T05:59:00.762Z,71.37
2023-04-03T06:00:01.091Z,71.37
2023-04-03T06:01:00.798Z,71.37
2023-04-03T06:02:00.754Z,71.50
2023-04-03T06:03:01.088Z,71.50
2023-04-03T06:04:01.045Z,71.50
2023-04-03T06:05:01.029Z,71.50
2023-04-03T06:06:02.232Z,71.50
2023-04-03T06:07:00.746Z,71.54
2023-04-03T06:08:00.739Z,71.54
2023-04-03T06:09:02.063Z,71.54
2023-04-03T06:10:01.178Z,71.54
2023-04-03T06:11:00.899Z,71.54
2023-04-03T06:12:00.760Z,71.55
2023-04-03T06:13:00.804Z,71.55
2023-04-03T06:14:00.745Z,71.55
2023-04-03T06:15:01.034Z,71.55
2023-04-03T06:16:01.122Z,71.55
2023-04-03T06:17:01.199Z,71.60
2023-04-03T06:18:00.788Z,71.60
2023-04-03T06:19:00.976Z,71.60
2023-04-03T06:20:00.947Z,71.60
2023-04-03T06:21:00.767Z,71.60
2023-04-03T06:22:00.795Z,71.56
2023-04-03T06:23:00.762Z,71.56
2023-04-03T06:24:00.783Z,71.56
2023-04-03T06:25:00.780Z,71.56
2023-04-03T06:26:01.057Z,71.56
2023-04-03T06:27:00.752Z,71.51
2023-04-03T06:28:00.724Z,71.51
2023-04-03T06:29:00.756Z,71.51
2023-04-03T06:30:00.784Z,71.51
2023-04-03T06:31:00.855Z,71.51
2023-04-03T06:32:00.739Z,71.51
2023-04-03T06:33:00.776Z,71.51
2023-04-03T06:34:00.752Z,71.51
2023-04-03T06:35:00.735Z,71.51
2023-04-03T06:36:03.642Z,71.51
2023-04-03T06:37:00.768Z,71.61
2023-04-03T06:38:00.992Z,71.61
2023-04-03T06:39:00.799Z,71.61
2023-04-03T06:40:01.027Z,71.61
2023-04-03T06:41:00.740Z,71.61
2023-04-03T06:42:00.732Z,71.70
2023-04-03T06:43:00.986Z,71.70
2023-04-03T06:44:00.775Z,71.70
2023-04-03T06:45:00.748Z,71.70
2023-04-03T06:46:00.804Z,71.70
2023-04-03T06:47:00.733Z,71.86
2023-04-03T06:48:00.854Z,71.86
2023-04-03T06:49:00.773Z,71.86
2023-04-03T06:50:00.804Z,71.86
2023-04-03T06:51:00.734Z,71.86
2023-04-03T06:52:02.410Z,72.08
2023-04-03T06:53:00.940Z,72.08
2023-04-03T06:54:01.474Z,72.08
2023-04-03T06:55:00.816Z,72.08
2023-04-03T06:56:00.762Z,72.08
2023-04-03T06:57:00.808Z,72.15
2023-04-03T06:58:03.355Z,72.15
2023-04-03T06:59:00.806Z,72.15
2023-04-03T07:00:00.785Z,72.15
2023-04-03T07:01:00.743Z,72.15
2023-04-03T07:02:00.856Z,72.32
2023-04-03T07:03:00.889Z,72.32
2023-04-03T07:04:00.752Z,72.32
2023-04-03T07:05:00.791Z,72.32
2023-04-03T07:06:00.829Z,72.32
2023-04-03T07:07:00.738Z,72.53
2023-04-03T07:08:00.787Z,72.53
2023-04-03T07:09:00.755Z,72.53
2023-04-03T07:10:00.978Z,72.53
2023-04-03T07:11:00.781Z,72.53
2023-04-03T07:12:00.784Z,72.87
2023-04-03T07:13:00.757Z,72.87
2023-04-03T07:14:00.771Z,72.87
2023-04-03T07:15:00.824Z,72.87
2023-04-03T07:16:00.813Z,72.87
2023-04-03T07:17:00.813Z,73.14
2023-04-03T07:18:00.760Z,73.14
2023-04-03T07:19:01.004Z,73.14
2023-04-03T07:20:00.757Z,73.14
2023-04-03T07:21:01.341Z,73.14
2023-04-03T07:22:00.739Z,73.21
2023-04-03T07:23:02.789Z,73.21
2023-04-03T07:24:00.751Z,73.21
2023-04-03T07:25:00.755Z,73.21
2023-04-03T07:26:00.755Z,73.21
2023-04-03T07:27:00.769Z,73.45
2023-04-03T07:28:00.829Z,73.45
2023-04-03T07:29:00.820Z,73.45
2023-04-03T07:30:00.772Z,73.45
2023-04-03T07:31:03.428Z,73.45
2023-04-03T07:32:01.215Z,73.63
2023-04-03T07:33:00.844Z,73.63
2023-04-03T07:34:00.809Z,73.63
2023-04-03T07:35:02.381Z,73.63
2023-04-03T07:36:01.581Z,73.63
2023-04-03T07:37:00.742Z,73.84
2023-04-03T07:38:00.763Z,73.84
2023-04-03T07:39:00.751Z,73.84
2023-04-03T07:40:00.785Z,73.84
2023-04-03T07:41:00.754Z,73.84
2023-04-03T07:42:01.314Z,73.88
2023-04-03T07:43:00.901Z,73.88
2023-04-03T07:44:00.762Z,73.88
2023-04-03T07:45:01.212Z,73.88
2023-04-03T07:46:00.840Z,73.88
2023-04-03T07:47:00.817Z,73.92
2023-04-03T07:48:00.975Z,73.92
2023-04-03T07:49:00.773Z,73.92
2023-04-03T07:50:00.779Z,73.92
2023-04-03T07:51:01.896Z,73.92
2023-04-03T07:52:00.780Z,74.31
2023-04-03T07:53:00.781Z,74.31
2023-04-03T07:54:00.819Z,74.31
2023-04-03T07:55:00.765Z,74.31
2023-04-03T07:56:00.854Z,74.31
2023-04-03T07:57:00.793Z,74.41
2023-04-03T07:58:00.843Z,74.41
2023-04-03T07:59:00.763Z,74.41
2023-04-03T08:00:01.230Z,74.41
2023-04-03T08:01:00.775Z,74.41
2023-04-03T08:02:00.842Z,74.51
2023-04-03T08:03:00.953Z,74.51
2023-04-03T08:04:01.087Z,74.51
2023-04-03T08:05:01.052Z,74.51
2023-04-03T08:06:02.317Z,74.51
2023-04-03T08:07:00.822Z,74.81
2023-04-03T08:08:00.913Z,74.81
2023-04-03T08:09:01.542Z,74.81
2023-04-03T08:10:00.877Z,74.81
2023-04-03T08:11:01.126Z,74.81
2023-04-03T08:12:00.895Z,74.72
2023-04-03T08:13:01.267Z,74.72
2023-04-03T08:14:00.750Z,74.72
2023-04-03T08:15:00.793Z,74.72
2023-04-03T08:16:10.857Z,74.72
2023-04-03T08:17:00.791Z,74.70
2023-04-03T08:18:01.511Z,74.70
2023-04-03T08:19:00.846Z,74.70
2023-04-03T08:20:01.218Z,74.70
2023-04-03T08:21:00.753Z,74.70
2023-04-03T08:22:00.912Z,74.37
2023-04-03T08:23:00.761Z,74.37
2023-04-03T08:24:00.763Z,74.37
2023-04-03T08:25:00.784Z,74.37
2023-04-03T08:26:09.418Z,74.37
2023-04-03T08:27:00.772Z,73.83
2023-04-03T08:28:00.749Z,73.83
2023-04-03T08:29:01.262Z,73.83
2023-04-03T08:30:00.757Z,73.83
2023-04-03T08:31:05.122Z,73.83
2023-04-03T08:32:00.742Z,73.66
2023-04-03T08:33:01.442Z,73.66
2023-04-03T08:34:00.763Z,73.66
2023-04-03T08:35:00.758Z,73.66
2023-04-03T08:36:00.860Z,73.66
2023-04-03T08:37:01.149Z,73.58
2023-04-03T08:38:00.740Z,73.58
2023-04-03T08:39:00.821Z,73.58
2023-04-03T08:40:00.768Z,73.58
2023-04-03T08:41:10.659Z,73.58
2023-04-03T08:42:02.887Z,72.74
2023-04-03T08:43:10.678Z,72.74
2023-04-03T08:44:07.578Z,72.74
2023-04-03T08:45:10.642Z,72.74
2023-04-03T08:46:02.495Z,72.74
2023-04-03T08:47:10.657Z,72.60
2023-04-03T08:48:06.184Z,72.60
2023-04-03T08:49:00.900Z,72.60
2023-04-03T08:50:04.472Z,72.60
2023-04-03T08:51:03.618Z,72.60
2023-04-03T08:52:02.678Z,72.39
2023-04-03T08:53:01.589Z,72.39
2023-04-03T08:54:04.220Z,72.39
2023-04-03T08:55:01.866Z,72.39
2023-04-03T08:56:04.242Z,72.39
2023-04-03T08:57:02.196Z,72.55
2023-04-03T08:58:02.322Z,72.55
2023-04-03T08:59:04.950Z,72.55
2023-04-03T09:00:04.384Z,72.55
2023-04-03T09:01:03.000Z,72.55
2023-04-03T09:02:03.727Z,72.04
2023-04-03T09:03:00.807Z,72.04
2023-04-03T09:04:01.546Z,72.04
2023-04-03T09:05:02.263Z,72.04
2023-04-03T09:06:05.172Z,72.04
2023-04-03T09:07:10.648Z,71.76
2023-04-03T09:08:04.678Z,71.76
2023-04-03T09:09:00.849Z,71.76
2023-04-03T09:10:01.030Z,71.76
2023-04-03T09:11:10.664Z,71.76
2023-04-03T09:12:10.656Z,71.85
2023-04-03T09:13:10.651Z,71.85
2023-04-03T09:14:07.216Z,71.85
2023-04-03T09:15:04.102Z,71.85
2023-04-03T09:16:02.896Z,71.85
2023-04-03T09:17:04.380Z,71.84
2023-04-03T09:18:10.664Z,71.84
2023-04-03T09:19:10.729Z,71.84
2023-04-03T09:20:04.060Z,71.84
2023-04-03T09:21:00.751Z,71.84
2023-04-03T09:22:10.666Z,71.43
2023-04-03T09:23:01.289Z,71.43
2023-04-03T09:24:03.386Z,71.43
2023-04-03T09:25:00.741Z,71.43
2023-04-03T09:26:02.565Z,71.43
2023-04-03T09:27:04.656Z,70.88
2023-04-03T09:28:01.079Z,70.88
2023-04-03T09:29:05.848Z,70.88
2023-04-03T09:30:00.842Z,70.88
2023-04-03T09:31:01.932Z,70.88
2023-04-03T09:32:01.714Z,69.86
2023-04-03T09:33:00.867Z,69.86
2023-04-03T09:34:02.882Z,69.86
2023-04-03T09:35:13.012Z,69.86
2023-04-03T09:36:00.734Z,69.86
2023-04-03T09:37:01.750Z,69.58
2023-04-03T09:38:00.753Z,69.58
2023-04-03T09:39:04.503Z,69.58
2023-04-03T09:40:00.899Z,69.58
2023-04-03T09:41:04.326Z,69.58
2023-04-03T09:42:02.397Z,69.35
2023-04-03T09:43:10.663Z,69.35
2023-04-03T09:44:00.785Z,69.35
2023-04-03T09:45:02.101Z,69.35
2023-04-03T09:46:10.717Z,69.35
2023-04-03T09:47:10.917Z,69.70
2023-04-03T09:48:06.769Z,69.70
2023-04-03T09:49:08.933Z,69.70
2023-04-03T09:50:10.687Z,69.70
2023-04-03T09:51:01.444Z,69.70
2023-04-03T09:52:10.693Z,69.23
2023-04-03T09:53:04.904Z,69.23
2023-04-03T09:54:10.720Z,69.23
2023-04-03T09:55:10.573Z,69.23
2023-04-03T09:56:01.414Z,69.23
2023-04-03T09:57:06.185Z,68.81
2023-04-03T09:58:01.725Z,68.81
2023-04-03T09:59:07.391Z,68.81
2023-04-03T10:00:01.488Z,68.81
2023-04-03T10:01:02.149Z,68.81
2023-04-03T10:02:08.260Z,68.68
2023-04-03T10:03:00.856Z,68.68
2023-04-03T10:04:03.417Z,68.68
2023-04-03T10:05:09.383Z,68.68
2023-04-03T10:06:02.035Z,68.68
2023-04-03T10:07:00.752Z,68.00
2023-04-03T10:08:08.849Z,68.00
2023-04-03T10:09:10.674Z,68.00
2023-04-03T10:10:10.658Z,68.00
2023-04-03T10:11:10.737Z,68.00
2023-04-03T10:12:10.666Z,67.47
2023-04-03T10:13:04.803Z,67.47
2023-04-03T10:14:02.482Z,67.47
2023-04-03T10:15:00.892Z,67.47
2023-04-03T10:16:06.442Z,67.47
2023-04-03T10:17:01.793Z,67.17
2023-04-03T10:18:11.392Z,67.17
2023-04-03T10:19:01.758Z,67.17
2023-04-03T10:20:06.722Z,67.17
2023-04-03T10:21:06.150Z,67.17
2023-04-03T10:22:10.657Z,66.57
2023-04-03T10:23:10.752Z,66.57
2023-04-03T10:24:10.684Z,66.57
2023-04-03T10:25:10.801Z,66.57
2023-04-03T10:26:12.044Z,66.57
2023-04-03T10:27:10.409Z,66.16
2023-04-03T10:28:01.941Z,66.16
2023-04-03T10:29:10.680Z,66.16
2023-04-03T10:30:00.757Z,66.16
2023-04-03T10:31:06.095Z,66.16
2023-04-03T10:32:00.930Z,65.58
2023-04-03T10:33:08.216Z,65.58
2023-04-03T10:34:00.761Z,65.58
2023-04-03T10:35:10.658Z,65.58
2023-04-03T10:36:08.153Z,65.58
2023-04-03T10:37:00.725Z,62.19
2023-04-03T10:38:04.007Z,62.19
2023-04-03T10:39:10.658Z,62.19
2023-04-03T10:40:10.672Z,62.19
2023-04-03T10:41:08.161Z,62.19
2023-04-03T10:42:17.047Z,61.62
2023-04-03T10:43:01.755Z,61.62
2023-04-03T10:44:10.684Z,61.62
2023-04-03T10:45:10.677Z,61.62
2023-04-03T10:46:04.953Z,61.62
2023-04-03T10:47:00.717Z,61.27
2023-04-03T10:48:10.734Z,61.27
2023-04-03T10:49:00.748Z,61.27
2023-04-03T10:50:10.688Z,61.27
2023-04-03T10:51:10.664Z,61.27
2023-04-03T10:52:07.466Z,60.58
2023-04-03T10:53:08.015Z,60.58
2023-04-03T10:54:05.533Z,60.58
2023-04-03T10:55:10.646Z,60.58
2023-04-03T10:56:00.748Z,60.58
2023-04-03T10:57:11.815Z,60.95
2023-04-03T10:58:01.497Z,60.95
2023-04-03T10:59:08.018Z,60.95
2023-04-03T11:00:04.874Z,60.95
2023-04-03T11:01:05.340Z,60.95
2023-04-03T11:02:06.169Z,59.93
2023-04-03T11:03:05.422Z,59.93
2023-04-03T11:04:01.324Z,59.93
2023-04-03T11:05:05.667Z,59.93
2023-04-03T11:06:01.931Z,59.93
2023-04-03T11:07:06.404Z,57.97
2023-04-03T11:08:10.138Z,57.97
2023-04-03T11:09:02.175Z,57.97
2023-04-03T11:10:03.128Z,57.97
2023-04-03T11:11:04.622Z,57.97
2023-04-03T11:12:04.089Z,56.63
2023-04-03T11:13:06.930Z,56.63
2023-04-03T11:14:10.701Z,56.63
2023-04-03T11:15:02.146Z,56.63
2023-04-03T11:16:02.605Z,56.63
2023-04-03T11:17:01.893Z,56.11
2023-04-03T11:18:04.039Z,56.11
2023-04-03T11:19:10.700Z,56.11
2023-04-03T11:20:04.040Z,56.11
2023-04-03T11:21:03.484Z,56.11
2023-04-03T11:22:04.211Z,56.27
2023-04-03T11:23:02.992Z,56.27
2023-04-03T11:24:02.739Z,56.27
2023-04-03T11:25:04.092Z,56.27
2023-04-03T11:26:07.722Z,56.27
2023-04-03T11:27:01.732Z,56.69
2023-04-03T11:28:02.233Z,56.69
2023-04-03T11:29:04.025Z,56.69
2023-04-03T11:30:01.511Z,56.69
2023-04-03T11:31:04.160Z,56.69
2023-04-03T11:32:08.064Z,56.62
2023-04-03T11:33:10.721Z,56.62
2023-04-03T11:34:06.140Z,56.62
2023-04-03T11:35:02.363Z,56.62
2023-04-03T11:36:09.868Z,56.62
2023-04-03T11:37:01.405Z,56.88
2023-04-03T11:38:02.271Z,56.88
2023-04-03T11:39:06.384Z,56.88
2023-04-03T11:40:03.648Z,56.88
2023-04-03T11:41:01.185Z,56.88
2023-04-03T11:42:13.263Z,56.75
2023-04-03T11:43:10.671Z,56.75
2023-04-03T11:44:02.587Z,56.75
2023-04-03T11:45:10.671Z,56.75
2023-04-03T11:46:02.189Z,56.75
2023-04-03T11:47:01.902Z,55.62
2023-04-03T11:48:10.205Z,55.62
2023-04-03T11:49:00.791Z,55.62
2023-04-03T11:50:01.116Z,55.62
2023-04-03T11:51:01.853Z,55.62
2023-04-03T11:52:00.758Z,55.85
2023-04-03T11:53:02.098Z,55.85
2023-04-03T11:54:10.801Z,55.85
2023-04-03T11:55:01.002Z,55.85
2023-04-03T11:56:00.726Z,55.85
2023-04-03T11:57:10.757Z,54.95
2023-04-03T11:58:00.774Z,54.95
2023-04-03T11:59:11.239Z,54.95
2023-04-03T12:00:01.712Z,54.95
2023-04-03T12:01:02.560Z,54.95
2023-04-03T12:02:00.750Z,54.04
2023-04-03T12:03:00.994Z,54.04
2023-04-03T12:04:10.005Z,54.04
2023-04-03T12:05:10.651Z,54.04
2023-04-03T12:06:08.341Z,54.04
2023-04-03T12:07:10.666Z,52.62
2023-04-03T12:08:10.673Z,52.62
2023-04-03T12:09:00.763Z,52.62
2023-04-03T12:10:00.757Z,52.62
2023-04-03T12:11:10.810Z,52.62
2023-04-03T12:12:11.567Z,53.51
2023-04-03T12:13:00.975Z,53.51
2023-04-03T12:14:00.783Z,53.51
2023-04-03T12:15:10.661Z,53.51
2023-04-03T12:16:01.819Z,53.51
2023-04-03T12:17:00.931Z,53.21
2023-04-03T12:18:10.704Z,53.21
2023-04-03T12:19:02.348Z,53.21
2023-04-03T12:20:00.776Z,53.21
2023-04-03T12:21:00.753Z,53.21
2023-04-03T12:22:00.738Z,54.10
2023-04-03T12:23:10.681Z,54.10
2023-04-03T12:24:08.169Z,54.10
2023-04-03T12:25:10.671Z,54.10
2023-04-03T12:26:03.227Z,54.10
2023-04-03T12:27:00.743Z,52.95
2023-04-03T12:28:00.786Z,52.95
2023-04-03T12:29:10.100Z,52.95
2023-04-03T12:30:01.834Z,52.95
2023-04-03T12:31:02.014Z,52.95
2023-04-03T12:32:00.725Z,50.99
2023-04-03T12:33:13.670Z,50.99
2023-04-03T12:34:10.693Z,50.99
2023-04-03T12:35:01.750Z,50.99
2023-04-03T12:36:10.683Z,50.99
2023-04-03T12:37:08.110Z,50.88
2023-04-03T12:38:10.665Z,50.88
2023-04-03T12:39:05.955Z,50.88
2023-04-03T12:40:00.739Z,50.88
2023-04-03T12:41:01.755Z,50.88
2023-04-03T12:42:10.662Z,50.88
2023-04-03T12:43:05.025Z,50.88
2023-04-03T12:44:07.905Z,50.88
2023-04-03T12:45:10.133Z,50.88
2023-04-03T12:46:04.359Z,50.88
2023-04-03T12:47:01.925Z,50.54
2023-04-03T12:48:01.843Z,50.54
2023-04-03T12:49:01.833Z,50.54
2023-04-03T12:50:03.089Z,50.54
2023-04-03T12:51:02.274Z,50.54
2023-04-03T12:52:02.516Z,50.08